createdAt,value
2019-03-25T00:01:01.375Z,5.3
2019-03-25T00:11:01.418Z,5.2
2019-03-25T00:26:01.369Z,5.2
2019-03-25T00:41:01.367Z,5.2
2019-03-25T00:56:01.558Z,5.1
2019-03-25T01:06:01.458Z,5.0
2019-03-25T01:17:01.421Z,4.9
2019-03-25T01:27:01.337Z,4.8
2019-03-25T01:32:01.281Z,4.7
2019-03-25T01:37:01.360Z,4.6
2019-03-25T01:47:01.454Z,4.5
2019-03-25T01:57:01.353Z,4.4
2019-03-25T02:07:01.381Z,4.3
2019-03-25T02:17:01.370Z,4.2
2019-03-25T02:27:01.424Z,4.1
2019-03-25T02:37:01.374Z,3.9
2019-03-25T02:42:01.317Z,3.8
2019-03-25T02:47:01.390Z,3.7
2019-03-25T02:52:01.313Z,3.6
2019-03-25T02:57:01.428Z,3.4
2019-03-25T03:02:01.338Z,3.3
2019-03-25T03:07:01.415Z,3.2
2019-03-25T03:17:01.358Z,3.1
2019-03-25T03:22:01.298Z,3.0
2019-03-25T03:32:01.469Z,2.9
2019-03-25T03:37:01.425Z,2.8
2019-03-25T03:47:01.362Z,2.7
2019-03-25T03:52:01.305Z,2.6
2019-03-25T04:07:01.460Z,2.7
2019-03-25T04:22:01.153Z,2.7
2019-03-25T04:37:01.371Z,2.7
2019-03-25T04:52:01.326Z,2.7
2019-03-25T05:07:01.299Z,2.7
2019-03-25T05:12:01.327Z,2.8
2019-03-25T05:22:01.302Z,2.9
2019-03-25T05:27:02.932Z,3.0
2019-03-25T05:32:01.360Z,3.1
2019-03-25T05:37:01.321Z,3.3
2019-03-25T05:42:01.370Z,3.4
2019-03-25T05:47:01.336Z,3.5
2019-03-25T05:52:01.314Z,3.6
2019-03-25T05:57:03.253Z,3.7
2019-03-25T06:02:01.477Z,3.8
2019-03-25T06:17:01.464Z,3.9
2019-03-25T06:22:01.467Z,4.0
2019-03-25T06:27:01.464Z,4.1
2019-03-25T06:32:01.465Z,4.2
2019-03-25T06:37:01.479Z,4.4
2019-03-25T06:43:01.487Z,4.5
2019-03-25T06:48:01.456Z,4.6
2019-03-25T06:58:01.478Z,4.7
2019-03-25T07:09:01.436Z,4.8
2019-03-25T07:14:01.552Z,4.9
2019-03-25T07:19:01.452Z,5.0
2019-03-25T07:34:01.180Z,5.1
2019-03-25T07:39:01.347Z,5.2
2019-03-25T07:49:01.171Z,5.4
2019-03-25T07:54:01.813Z,5.6
2019-03-25T07:59:01.460Z,5.8
2019-03-25T08:04:01.504Z,5.9
2019-03-25T08:09:03.885Z,6.0
2019-03-25T08:19:01.180Z,6.1
2019-03-25T08:29:01.464Z,6.2
2019-03-25T08:34:01.404Z,6.4
2019-03-25T08:39:01.325Z,6.5
2019-03-25T08:44:01.420Z,6.6
2019-03-25T08:49:01.323Z,6.8
2019-03-25T08:54:01.457Z,7.0
2019-03-25T08:59:01.341Z,7.1
2019-03-25T09:09:01.542Z,7.3
2019-03-25T09:14:01.418Z,7.4
2019-03-25T09:19:01.323Z,7.5
2019-03-25T09:24:01.391Z,7.7
2019-03-25T09:29:01.347Z,7.8
2019-03-25T09:39:01.387Z,7.9
2019-03-25T09:44:01.387Z,8.0
2019-03-25T09:59:01.351Z,8.0
2019-03-25T10:04:01.411Z,7.8
2019-03-25T10:14:01.384Z,8.0
2019-03-25T10:19:01.383Z,8.2
2019-03-25T10:24:01.375Z,8.6
2019-03-25T10:29:01.334Z,8.9
2019-03-25T10:34:01.590Z,9.0
2019-03-25T10:39:01.554Z,8.7
2019-03-25T10:44:01.519Z,8.3
2019-03-25T10:49:01.490Z,7.5
2019-03-25T10:54:01.559Z,6.7
2019-03-25T10:59:01.450Z,5.8
2019-03-25T11:04:01.518Z,5.3
2019-03-25T11:09:01.491Z,5.1
2019-03-25T11:14:02.344Z,5.3
2019-03-25T11:19:01.302Z,5.7
2019-03-25T11:24:01.431Z,6.2
2019-03-25T11:29:08.178Z,6.8
2019-03-25T11:34:01.390Z,7.1
2019-03-25T11:39:01.613Z,7.5
2019-03-25T11:44:01.382Z,7.6
2019-03-25T11:49:01.300Z,7.9
2019-03-25T11:54:01.452Z,8.0
2019-03-25T11:59:02.934Z,8.1
2019-03-25T12:04:01.411Z,8.0
2019-03-25T12:09:01.320Z,8.1
2019-03-25T12:19:01.150Z,8.2
2019-03-25T12:24:01.438Z,8.4
2019-03-25T12:29:01.308Z,8.6
2019-03-25T12:34:01.439Z,8.7
2019-03-25T12:39:01.309Z,8.8
2019-03-25T12:44:01.610Z,9.0
2019-03-25T12:49:01.314Z,9.2
2019-03-25T12:54:01.858Z,9.3
2019-03-25T12:59:01.304Z,9.2
2019-03-25T13:04:01.859Z,9.0
2019-03-25T13:09:01.306Z,8.9
2019-03-25T13:14:01.461Z,8.8
2019-03-25T13:19:01.309Z,8.7
2019-03-25T13:24:01.398Z,8.8
2019-03-25T13:29:02.503Z,9.0
2019-03-25T13:34:01.423Z,9.1
2019-03-25T13:39:01.304Z,9.3
2019-03-25T13:54:01.441Z,9.3
2019-03-25T14:04:01.221Z,9.4
2019-03-25T14:09:01.413Z,9.6
2019-03-25T14:14:01.445Z,9.8
2019-03-25T14:19:01.416Z,10.0
2019-03-25T14:24:01.692Z,10.1
2019-03-25T14:29:01.320Z,9.8
2019-03-25T14:34:01.369Z,9.5
2019-03-25T14:39:01.469Z,9.3
2019-03-25T14:44:01.473Z,9.0
2019-03-25T14:49:01.480Z,8.6
2019-03-25T14:54:01.519Z,8.5
2019-03-25T14:59:01.243Z,8.4
2019-03-25T15:04:01.446Z,8.2
2019-03-25T15:09:01.388Z,8.1
2019-03-25T15:19:01.172Z,8.3
2019-03-25T15:24:01.313Z,8.5
2019-03-25T15:29:01.331Z,8.7
2019-03-25T15:34:01.328Z,8.8
2019-03-25T15:39:01.317Z,8.9
2019-03-25T15:49:01.315Z,8.8
2019-03-25T15:59:03.250Z,8.7
2019-03-25T16:04:01.293Z,8.6
2019-03-25T16:09:01.382Z,8.5
2019-03-25T16:14:01.362Z,8.4
2019-03-25T16:24:01.292Z,8.5
2019-03-25T16:29:01.308Z,8.6
2019-03-25T16:34:01.308Z,8.7
2019-03-25T16:39:01.311Z,8.8
2019-03-25T16:44:01.313Z,8.9
2019-03-25T16:49:01.318Z,9.0
2019-03-25T16:54:01.115Z,9.1
2019-03-25T16:59:01.287Z,9.0
2019-03-25T17:04:06.306Z,8.9
2019-03-25T17:09:01.340Z,8.7
2019-03-25T17:14:01.330Z,8.4
2019-03-25T17:19:02.428Z,8.0
2019-03-25T17:24:01.334Z,7.9
2019-03-25T17:29:01.332Z,7.7
2019-03-25T17:34:01.336Z,7.6
2019-03-25T17:39:01.330Z,7.3
2019-03-25T17:44:03.959Z,7.1
2019-03-25T17:49:01.333Z,6.8
2019-03-25T17:54:01.369Z,6.5
2019-03-25T17:59:01.348Z,6.2
2019-03-25T18:04:01.362Z,5.9
2019-03-25T18:09:01.307Z,5.6
2019-03-25T18:15:01.342Z,5.4
2019-03-25T18:20:01.309Z,5.2
2019-03-25T18:25:01.306Z,5.1
2019-03-25T18:30:01.328Z,4.9
2019-03-25T18:40:01.306Z,4.8
2019-03-25T18:45:01.346Z,4.7
2019-03-25T18:50:01.302Z,4.6
2019-03-25T19:00:01.390Z,4.6
2019-03-25T19:16:01.646Z,4.7
2019-03-25T19:21:01.307Z,4.8
2019-03-25T19:36:01.385Z,4.9
2019-03-25T19:51:01.427Z,4.9
2019-03-25T20:01:01.632Z,5.0
2019-03-25T20:16:06.400Z,4.9
2019-03-25T20:26:01.402Z,4.8
2019-03-25T20:31:01.622Z,4.7
2019-03-25T20:36:01.508Z,4.6
2019-03-25T20:41:01.316Z,4.4
2019-03-25T20:47:01.551Z,4.3
2019-03-25T20:52:01.387Z,4.2
2019-03-25T20:57:01.488Z,4.1
2019-03-25T21:12:01.439Z,4.1
2019-03-25T21:27:01.458Z,4.1
2019-03-25T21:42:01.460Z,4.1
2019-03-25T21:57:01.498Z,4.1
2019-03-25T22:02:01.429Z,4.0
2019-03-25T22:12:01.454Z,3.9
2019-03-25T22:17:01.443Z,3.8
2019-03-25T22:27:01.428Z,3.7
2019-03-25T22:42:01.499Z,3.7
2019-03-25T22:47:01.451Z,3.8
2019-03-25T22:57:01.421Z,3.9
2019-03-25T23:02:01.311Z,4.0
2019-03-25T23:07:01.434Z,4.1
2019-03-25T23:17:01.530Z,4.2
2019-03-25T23:32:01.443Z,4.2
2019-03-25T23:37:01.513Z,4.1
2019-03-25T23:47:01.423Z,4.0
2019-03-25T23:52:01.366Z,3.9
